• Join FlightAware (Why Join?)
  • Login
  • US Flag 
07:53AM EST


 

Airport Tracker/Info


-or-


 

Live Flight TrackerFlight Track Log ✈ RPA3321 ✈ 08-Aug-2013 ✈ KALB - KDCA

Flight Track Log - Related Links

Times and Time Zones

All times are in EDT time to prevent confusion due to time zone crossing. See the RPA3321 flight status page for this flight to view local times or setup timezone preferences in your user account.

Time Position Orientation Groundspeed Altitude Reporting Facility
EDT Latitude Longitude Course Direction KTS MPH feet Rate Location/Type
05:36AM 42.7381 -73.8083 118° Southeast 128 147 1,400  Level Boston Center
05:38AM 42.7006 -73.8244 198° South 200 230 3,200 2,463 Climbing Boston Center
05:39AM 42.5116 -74.0128 171° South  Level Estimated
05:39AM 42.7200 -73.9294 284° West 246 283 6,900  Level Boston Center
05:40AM 42.4324 -74.0827 180° South  Level Estimated
05:40AM 42.7103 -74.0253 262° West 253 291 10,200  Level Boston Center
05:41AM 42.3531 -74.1524 172° South  Level Estimated
05:41AM 42.6675 -74.1061 234° Southwest 266 306 12,300  Level Boston Center
05:42AM 42.3085 -74.0396 118° Southeast  Level FlightAware Approximate
05:42AM 42.5778 -74.1092 181° South 248 285 14,600  Level Boston Center
05:43AM 42.4994 -74.0564 154° Southeast 309 356 17,100 2,300 Climbing Boston Center
05:44AM 42.4000 -73.9978 156° South 357 411 19,200 1,884 Climbing Boston Center
05:45AM 42.3008 -73.9364 155° Southeast 368 423 20,900 1,736 Climbing Boston Center
05:46AM 42.1975 -73.8722 155° Southeast 395 455 22,700 1,815 Climbing Boston Center
05:47AM 42.0900 -73.8053 155° Southeast 408 470 24,500 1,692 Climbing Boston Center
05:48AM 41.9797 -73.7917 175° South 402 463 26,000 750 Climbing Boston Center
05:49AM 41.8789 -73.8453 202° Southwest 381 438 26,000  Level Boston Center
05:50AM 41.7150 -73.9253 200° South 387 445 26,000  Level New York Center
05:51AM 41.6158 -73.9786 202° Southwest 393 452 26,000  Level New York Center
05:52AM 41.5100 -74.0344 202° Southwest 393 452 26,000  Level New York Center
05:53AM 41.4086 -74.0878 202° Southwest 388 447 26,000  Level New York Center
05:54AM 41.3050 -74.1406 201° Southwest 395 455 26,000  Level New York Center
05:55AM 41.2036 -74.1906 200° South 395 455 26,000  Level New York Center
05:56AM 41.1025 -74.2378 199° South 400 460 26,000  Level New York Center
05:57AM 41.0008 -74.2931 202° Southwest 394 453 26,000  Level New York Center
05:58AM 40.9033 -74.3456 202° Southwest 394 453 26,000  Level New York Center
05:59AM 40.8019 -74.3950 200° South 389 448 26,000  Level New York Center
06:00AM 40.7322 -74.4928 227° Southwest 376 433 26,000  Level New York Center
06:01AM 40.6622 -74.5928 227° Southwest 371 427 26,000  Level New York Center
06:02AM 40.5964 -74.6931 229° Southwest 371 427 26,000  Level New York Center
06:03AM 40.5242 -74.7956 227° Southwest 377 434 26,000  Level New York Center
06:04AM 40.4581 -74.8981 230° Southwest 377 434 26,000  Level New York Center
06:05AM 40.3878 -75.0000 228° Southwest 377 434 26,000  Level New York Center
06:06AM 40.3175 -75.1019 228° Southwest 377 434 26,000  Level New York Center
06:07AM 40.2536 -75.1958 228° Southwest 377 434 26,000  Level New York Center
06:08AM 40.1808 -75.2997 228° Southwest 382 440 26,000 -303 Level New York Center
06:09AM 40.1100 -75.4064 229° Southwest 382 440 25,400 -1,300 Descending New York Center
06:10AM 40.0394 -75.5047 227° Southwest 382 440 23,400 -1,750 Descending New York Center
06:11AM 39.9708 -75.6003 227° Southwest 377 434 21,900 -1,513 Descending New York Center
06:12AM 39.9019 -75.7011 228° Southwest 377 434 20,400 -1,574 Descending New York Center
06:13AM 39.8306 -75.8125 230° Southwest 371 427 18,700 -1,527 Descending New York Center
06:15AM 39.7167 -75.9833 229° Southwest 337 388 16,100 -1,473 Descending Potomac TRACON
06:16AM 39.6667 -76.0833 237° Southwest 330 380 14,600 -1,421 Descending Potomac TRACON
06:17AM 39.6167 -76.1667 232° Southwest 320 368 13,400 -1,148 Descending Potomac TRACON
06:18AM 39.5500 -76.2500 224° Southwest 313 360 12,400 -992 Descending Potomac TRACON
06:19AM 39.5000 -76.3333 232° Southwest 309 356 11,400 -1,000 Descending Potomac TRACON
06:20AM 39.4500 -76.4167 232° Southwest 304 350 10,500 -737 Descending Potomac TRACON
06:21AM 39.3833 -76.4667 210° Southwest 284 327 10,000 -263 Descending Potomac TRACON
06:22AM 39.3333 -76.5333 226° Southwest 279 321 10,000  Level Potomac TRACON
06:23AM 39.2667 -76.5833 210° Southwest 280 322 10,000  Level Potomac TRACON
06:24AM 39.2000 -76.6333 210° Southwest 280 322 10,000  Level Potomac TRACON
06:25AM 39.1500 -76.7000 226° Southwest 279 321 10,000  Level Potomac TRACON
06:26AM 39.1000 -76.7500 218° Southwest 282 325 10,000 -835 Level Potomac TRACON
06:27AM 39.0333 -76.8167 218° Southwest 273 314 8,400 -1,700 Descending Potomac TRACON
06:28AM 38.9833 -76.8833 226° Southwest 266 306 6,600 -1,350 Descending Potomac TRACON
06:29AM 38.9667 -76.9833 258° West 259 298 5,700 -842 Descending Potomac TRACON
06:30AM 39.0000 -77.0500 303° West 250 288 5,000 -368 Descending Potomac TRACON
06:31AM 39.0333 -77.1000 311° West 181 208 5,000  Level Potomac TRACON
06:32AM 39.0667 -77.1333 322° Northwest 177 204 5,000 -316 Level Potomac TRACON
06:33AM 39.0833 -77.1833 293° West 174 200 4,400 -900 Descending Potomac TRACON
06:34AM 39.0500 -77.2000 201° Southwest 169 194 3,200 -667 Descending Potomac TRACON
06:35AM 39.0000 -77.1667 153° Southeast 174 200 3,000 -300 Descending Potomac TRACON
06:36AM 38.9667 -77.1333 142° Southeast 169 194 2,600 -632 Descending Potomac TRACON
06:37AM 38.9167 -77.1000 153° Southeast 169 194 1,800 -850 Descending Potomac TRACON
06:38AM 38.9000 -77.0667 123° Southeast 154 177 900 -750 Descending Potomac TRACON
06:39AM 38.8667 -77.0333 142° Southeast 131 151 300 -600 Descending Potomac TRACON